sensor_id;sensor_type;location;lat;lon;timestamp;P1;durP1;ratioP1;P2;durP2;ratioP2
40755;SDS011;26461;45.630;9.418;2023-03-02T00:02:19;14.77;;;8.18;;
40755;SDS011;26461;45.630;9.418;2023-03-02T00:05:30;17.77;;;11.35;;
40755;SDS011;26461;45.630;9.418;2023-03-02T00:08:40;11.32;;;5.95;;
40755;SDS011;26461;45.630;9.418;2023-03-02T00:11:51;13.55;;;7.82;;
40755;SDS011;26461;45.630;9.418;2023-03-02T00:15:01;15.30;;;8.02;;
40755;SDS011;26461;45.630;9.418;2023-03-02T00:18:10;15.25;;;9.30;;
40755;SDS011;26461;45.630;9.418;2023-03-02T00:21:20;16.52;;;8.32;;
40755;SDS011;26461;45.630;9.418;2023-03-02T00:24:32;16.80;;;9.68;;
40755;SDS011;26461;45.630;9.418;2023-03-02T00:27:42;9.07;;;7.70;;
40755;SDS011;26461;45.630;9.418;2023-03-02T00:30:52;11.43;;;7.05;;
40755;SDS011;26461;45.630;9.418;2023-03-02T00:34:02;9.57;;;6.82;;
40755;SDS011;26461;45.630;9.418;2023-03-02T00:37:12;11.60;;;11.00;;
40755;SDS011;26461;45.630;9.418;2023-03-02T00:40:22;15.07;;;8.68;;
40755;SDS011;26461;45.630;9.418;2023-03-02T00:43:32;11.95;;;11.20;;
40755;SDS011;26461;45.630;9.418;2023-03-02T00:46:42;15.07;;;8.48;;
40755;SDS011;26461;45.630;9.418;2023-03-02T00:49:52;16.48;;;7.63;;
40755;SDS011;26461;45.630;9.418;2023-03-02T00:53:03;12.18;;;4.60;;
40755;SDS011;26461;45.630;9.418;2023-03-02T00:56:13;14.77;;;8.48;;
40755;SDS011;26461;45.630;9.418;2023-03-02T00:59:28;19.55;;;5.95;;
40755;SDS011;26461;45.630;9.418;2023-03-02T01:02:46;14.07;;;6.18;;
40755;SDS011;26461;45.630;9.418;2023-03-02T01:05:56;10.00;;;7.68;;
40755;SDS011;26461;45.630;9.418;2023-03-02T01:09:06;10.35;;;8.00;;
40755;SDS011;26461;45.630;9.418;2023-03-02T01:12:16;13.52;;;5.57;;
40755;SDS011;26461;45.630;9.418;2023-03-02T01:15:26;13.65;;;7.55;;
40755;SDS011;26461;45.630;9.418;2023-03-02T01:18:37;13.90;;;8.43;;
40755;SDS011;26461;45.630;9.418;2023-03-02T01:21:47;10.10;;;4.57;;
40755;SDS011;26461;45.630;9.418;2023-03-02T01:24:57;9.40;;;6.63;;
40755;SDS011;26461;45.630;9.418;2023-03-02T01:28:07;8.80;;;7.47;;
40755;SDS011;26461;45.630;9.418;2023-03-02T01:31:17;16.92;;;8.80;;
40755;SDS011;26461;45.630;9.418;2023-03-02T01:34:27;13.40;;;9.20;;
40755;SDS011;26461;45.630;9.418;2023-03-02T01:37:36;28.58;;;10.18;;
40755;SDS011;26461;45.630;9.418;2023-03-02T01:40:46;12.63;;;9.05;;
40755;SDS011;26461;45.630;9.418;2023-03-02T01:43:56;11.10;;;8.82;;
40755;SDS011;26461;45.630;9.418;2023-03-02T01:47:11;13.60;;;8.07;;
40755;SDS011;26461;45.630;9.418;2023-03-02T01:50:28;15.07;;;5.85;;
40755;SDS011;26461;45.630;9.418;2023-03-02T01:53:40;7.22;;;6.25;;
40755;SDS011;26461;45.630;9.418;2023-03-02T01:56:55;14.32;;;8.13;;
40755;SDS011;26461;45.630;9.418;2023-03-02T02:00:13;16.65;;;8.18;;
40755;SDS011;26461;45.630;9.418;2023-03-02T02:03:28;17.55;;;11.35;;
40755;SDS011;26461;45.630;9.418;2023-03-02T02:10:18;25.40;;;13.52;;
40755;SDS011;26461;45.630;9.418;2023-03-02T02:13:28;23.67;;;11.40;;
40755;SDS011;26461;45.630;9.418;2023-03-02T02:16:39;23.00;;;11.35;;
40755;SDS011;26461;45.630;9.418;2023-03-02T02:20:51;21.67;;;14.77;;
40755;SDS011;26461;45.630;9.418;2023-03-02T02:23:33;25.63;;;9.50;;
40755;SDS011;26461;45.630;9.418;2023-03-02T02:26:57;14.05;;;9.63;;
40755;SDS011;26461;45.630;9.418;2023-03-02T02:30:07;19.92;;;13.18;;
40755;SDS011;26461;45.630;9.418;2023-03-02T02:33:21;33.72;;;14.82;;
40755;SDS011;26461;45.630;9.418;2023-03-02T02:36:34;22.33;;;15.00;;
40755;SDS011;26461;45.630;9.418;2023-03-02T02:39:51;34.28;;;16.60;;
40755;SDS011;26461;45.630;9.418;2023-03-02T02:43:02;25.27;;;18.77;;
40755;SDS011;26461;45.630;9.418;2023-03-02T02:46:13;26.08;;;15.82;;
40755;SDS011;26461;45.630;9.418;2023-03-02T02:49:33;30.42;;;16.50;;
40755;SDS011;26461;45.630;9.418;2023-03-02T02:52:44;26.15;;;14.20;;
40755;SDS011;26461;45.630;9.418;2023-03-02T02:55:59;23.45;;;16.08;;
40755;SDS011;26461;45.630;9.418;2023-03-02T02:59:15;28.27;;;13.27;;
40755;SDS011;26461;45.630;9.418;2023-03-02T03:02:29;35.22;;;18.27;;
40755;SDS011;26461;45.630;9.418;2023-03-02T03:05:45;32.28;;;18.55;;
40755;SDS011;26461;45.630;9.418;2023-03-02T03:08:53;19.23;;;11.45;;
40755;SDS011;26461;45.630;9.418;2023-03-02T03:12:23;21.35;;;14.18;;
40755;SDS011;26461;45.630;9.418;2023-03-02T03:15:39;27.25;;;13.77;;
40755;SDS011;26461;45.630;9.418;2023-03-02T03:18:48;30.05;;;21.67;;
40755;SDS011;26461;45.630;9.418;2023-03-02T03:22:01;24.52;;;14.60;;
40755;SDS011;26461;45.630;9.418;2023-03-02T03:25:12;17.58;;;12.63;;
40755;SDS011;26461;45.630;9.418;2023-03-02T03:28:25;25.70;;;13.90;;
40755;SDS011;26461;45.630;9.418;2023-03-02T03:31:36;26.83;;;15.48;;
40755;SDS011;26461;45.630;9.418;2023-03-02T03:34:48;28.13;;;18.73;;
40755;SDS011;26461;45.630;9.418;2023-03-02T03:38:06;21.73;;;12.93;;
40755;SDS011;26461;45.630;9.418;2023-03-02T03:41:16;26.30;;;14.38;;
40755;SDS011;26461;45.630;9.418;2023-03-02T03:44:26;23.67;;;17.17;;
40755;SDS011;26461;45.630;9.418;2023-03-02T03:47:38;16.75;;;9.73;;
40755;SDS011;26461;45.630;9.418;2023-03-02T03:50:49;19.20;;;9.07;;
40755;SDS011;26461;45.630;9.418;2023-03-02T03:53:59;19.77;;;13.43;;
40755;SDS011;26461;45.630;9.418;2023-03-02T03:57:15;18.25;;;12.80;;
40755;SDS011;26461;45.630;9.418;2023-03-02T04:00:25;17.60;;;9.95;;
40755;SDS011;26461;45.630;9.418;2023-03-02T04:03:42;23.25;;;13.10;;
40755;SDS011;26461;45.630;9.418;2023-03-02T04:06:52;24.25;;;16.95;;
40755;SDS011;26461;45.630;9.418;2023-03-02T04:10:03;19.05;;;13.68;;
40755;SDS011;26461;45.630;9.418;2023-03-02T04:13:16;32.15;;;14.38;;
40755;SDS011;26461;45.630;9.418;2023-03-02T04:16:28;20.95;;;8.70;;
40755;SDS011;26461;45.630;9.418;2023-03-02T04:19:38;24.40;;;12.70;;
40755;SDS011;26461;45.630;9.418;2023-03-02T04:22:50;22.50;;;11.32;;
40755;SDS011;26461;45.630;9.418;2023-03-02T04:26:01;27.15;;;16.92;;
40755;SDS011;26461;45.630;9.418;2023-03-02T04:29:15;20.92;;;14.25;;
40755;SDS011;26461;45.630;9.418;2023-03-02T04:32:27;24.67;;;15.27;;
40755;SDS011;26461;45.630;9.418;2023-03-02T04:35:36;31.60;;;15.23;;
40755;SDS011;26461;45.630;9.418;2023-03-02T04:38:46;19.75;;;14.27;;
40755;SDS011;26461;45.630;9.418;2023-03-02T04:41:56;27.80;;;16.83;;
40755;SDS011;26461;45.630;9.418;2023-03-02T04:45:06;12.52;;;7.78;;
40755;SDS011;26461;45.630;9.418;2023-03-02T04:48:17;15.80;;;15.02;;
40755;SDS011;26461;45.630;9.418;2023-03-02T04:51:28;28.77;;;13.18;;
40755;SDS011;26461;45.630;9.418;2023-03-02T04:54:42;22.90;;;15.50;;
40755;SDS011;26461;45.630;9.418;2023-03-02T04:57:52;17.63;;;12.30;;
40755;SDS011;26461;45.630;9.418;2023-03-02T05:01:01;25.13;;;16.25;;
40755;SDS011;26461;45.630;9.418;2023-03-02T05:04:11;17.50;;;13.82;;
40755;SDS011;26461;45.630;9.418;2023-03-02T05:07:21;19.67;;;13.07;;
40755;SDS011;26461;45.630;9.418;2023-03-02T05:10:31;32.05;;;15.02;;
40755;SDS011;26461;45.630;9.418;2023-03-02T05:13:41;31.70;;;17.95;;
40755;SDS011;26461;45.630;9.418;2023-03-02T05:16:51;23.38;;;17.10;;
40755;SDS011;26461;45.630;9.418;2023-03-02T05:20:02;22.85;;;17.67;;
40755;SDS011;26461;45.630;9.418;2023-03-02T05:23:15;34.42;;;17.63;;
40755;SDS011;26461;45.630;9.418;2023-03-02T05:26:32;32.50;;;16.05;;
40755;SDS011;26461;45.630;9.418;2023-03-02T05:29:42;36.00;;;21.25;;
40755;SDS011;26461;45.630;9.418;2023-03-02T05:32:47;39.65;;;18.15;;
40755;SDS011;26461;45.630;9.418;2023-03-02T05:35:58;22.45;;;18.55;;
40755;SDS011;26461;45.630;9.418;2023-03-02T05:39:08;36.88;;;17.50;;
40755;SDS011;26461;45.630;9.418;2023-03-02T05:42:18;27.15;;;13.13;;
40755;SDS011;26461;45.630;9.418;2023-03-02T05:45:29;35.88;;;15.90;;
40755;SDS011;26461;45.630;9.418;2023-03-02T05:48:40;39.08;;;13.88;;
40755;SDS011;26461;45.630;9.418;2023-03-02T05:51:50;21.88;;;16.33;;
40755;SDS011;26461;45.630;9.418;2023-03-02T05:55:00;23.33;;;16.83;;
40755;SDS011;26461;45.630;9.418;2023-03-02T05:58:14;36.85;;;20.67;;
40755;SDS011;26461;45.630;9.418;2023-03-02T06:01:26;36.45;;;16.95;;
40755;SDS011;26461;45.630;9.418;2023-03-02T06:04:36;22.88;;;17.05;;
40755;SDS011;26461;45.630;9.418;2023-03-02T06:07:51;24.08;;;14.50;;
40755;SDS011;26461;45.630;9.418;2023-03-02T06:11:01;27.60;;;16.17;;
40755;SDS011;26461;45.630;9.418;2023-03-02T06:14:11;22.98;;;15.25;;
40755;SDS011;26461;45.630;9.418;2023-03-02T06:17:16;19.98;;;14.18;;
40755;SDS011;26461;45.630;9.418;2023-03-02T06:20:26;29.15;;;22.35;;
40755;SDS011;26461;45.630;9.418;2023-03-02T06:23:36;25.42;;;15.57;;
40755;SDS011;26461;45.630;9.418;2023-03-02T06:26:41;31.83;;;17.63;;
40755;SDS011;26461;45.630;9.418;2023-03-02T06:29:51;32.55;;;17.67;;
40755;SDS011;26461;45.630;9.418;2023-03-02T06:32:56;37.63;;;21.08;;
40755;SDS011;26461;45.630;9.418;2023-03-02T06:36:06;25.88;;;16.35;;
40755;SDS011;26461;45.630;9.418;2023-03-02T06:39:16;28.13;;;15.70;;
40755;SDS011;26461;45.630;9.418;2023-03-02T06:42:26;26.33;;;17.70;;
40755;SDS011;26461;45.630;9.418;2023-03-02T06:45:36;36.10;;;22.38;;
40755;SDS011;26461;45.630;9.418;2023-03-02T06:48:46;30.63;;;20.77;;
40755;SDS011;26461;45.630;9.418;2023-03-02T06:51:56;28.40;;;19.92;;
40755;SDS011;26461;45.630;9.418;2023-03-02T06:55:06;19.25;;;15.43;;
40755;SDS011;26461;45.630;9.418;2023-03-02T06:58:12;33.03;;;20.67;;
40755;SDS011;26461;45.630;9.418;2023-03-02T07:01:22;46.97;;;31.02;;
40755;SDS011;26461;45.630;9.418;2023-03-02T07:04:32;58.22;;;36.75;;
40755;SDS011;26461;45.630;9.418;2023-03-02T07:07:41;37.80;;;26.67;;
40755;SDS011;26461;45.630;9.418;2023-03-02T07:10:51;26.98;;;20.25;;
40755;SDS011;26461;45.630;9.418;2023-03-02T07:14:01;28.63;;;18.98;;
40755;SDS011;26461;45.630;9.418;2023-03-02T07:17:12;30.23;;;21.35;;
40755;SDS011;26461;45.630;9.418;2023-03-02T07:20:22;33.40;;;20.60;;
40755;SDS011;26461;45.630;9.418;2023-03-02T07:23:26;38.88;;;21.38;;
40755;SDS011;26461;45.630;9.418;2023-03-02T07:26:36;32.47;;;22.35;;
40755;SDS011;26461;45.630;9.418;2023-03-02T07:29:46;27.15;;;20.20;;
40755;SDS011;26461;45.630;9.418;2023-03-02T07:32:56;29.08;;;18.55;;
40755;SDS011;26461;45.630;9.418;2023-03-02T07:36:06;25.08;;;18.02;;
40755;SDS011;26461;45.630;9.418;2023-03-02T07:39:16;40.38;;;22.98;;
40755;SDS011;26461;45.630;9.418;2023-03-02T07:42:27;39.65;;;18.15;;
40755;SDS011;26461;45.630;9.418;2023-03-02T07:45:39;31.60;;;17.65;;
40755;SDS011;26461;45.630;9.418;2023-03-02T07:48:49;37.10;;;23.80;;
40755;SDS011;26461;45.630;9.418;2023-03-02T07:51:58;58.15;;;25.42;;
40755;SDS011;26461;45.630;9.418;2023-03-02T07:55:09;27.45;;;21.70;;
40755;SDS011;26461;45.630;9.418;2023-03-02T07:58:18;38.55;;;23.05;;
40755;SDS011;26461;45.630;9.418;2023-03-02T08:01:29;50.38;;;24.60;;
40755;SDS011;26461;45.630;9.418;2023-03-02T08:04:39;41.63;;;20.70;;
40755;SDS011;26461;45.630;9.418;2023-03-02T08:07:45;40.80;;;24.90;;
40755;SDS011;26461;45.630;9.418;2023-03-02T08:10:55;55.10;;;29.70;;
40755;SDS011;26461;45.630;9.418;2023-03-02T08:14:15;51.75;;;28.83;;
40755;SDS011;26461;45.630;9.418;2023-03-02T08:17:25;43.78;;;26.05;;
40755;SDS011;26461;45.630;9.418;2023-03-02T08:20:35;34.72;;;20.92;;
40755;SDS011;26461;45.630;9.418;2023-03-02T08:23:45;43.40;;;16.60;;
40755;SDS011;26461;45.630;9.418;2023-03-02T08:26:58;32.95;;;17.80;;
40755;SDS011;26461;45.630;9.418;2023-03-02T08:30:10;41.92;;;20.52;;
40755;SDS011;26461;45.630;9.418;2023-03-02T08:33:21;32.10;;;23.58;;
40755;SDS011;26461;45.630;9.418;2023-03-02T08:36:31;24.23;;;14.27;;
40755;SDS011;26461;45.630;9.418;2023-03-02T08:39:41;34.28;;;17.77;;
40755;SDS011;26461;45.630;9.418;2023-03-02T08:42:51;30.15;;;16.95;;
40755;SDS011;26461;45.630;9.418;2023-03-02T08:46:05;33.80;;;18.73;;
40755;SDS011;26461;45.630;9.418;2023-03-02T08:49:16;23.52;;;18.63;;
40755;SDS011;26461;45.630;9.418;2023-03-02T08:52:26;28.58;;;20.40;;
40755;SDS011;26461;45.630;9.418;2023-03-02T08:55:36;26.45;;;17.67;;
40755;SDS011;26461;45.630;9.418;2023-03-02T08:58:47;33.90;;;21.67;;
40755;SDS011;26461;45.630;9.418;2023-03-02T09:01:57;27.02;;;18.08;;
40755;SDS011;26461;45.630;9.418;2023-03-02T09:05:07;30.98;;;19.90;;
40755;SDS011;26461;45.630;9.418;2023-03-02T09:08:17;42.97;;;22.13;;
40755;SDS011;26461;45.630;9.418;2023-03-02T09:11:27;31.80;;;23.48;;
40755;SDS011;26461;45.630;9.418;2023-03-02T09:14:37;40.50;;;21.90;;
40755;SDS011;26461;45.630;9.418;2023-03-02T09:17:47;34.25;;;21.27;;
40755;SDS011;26461;45.630;9.418;2023-03-02T09:20:57;28.83;;;23.88;;
40755;SDS011;26461;45.630;9.418;2023-03-02T09:24:07;32.88;;;22.85;;
40755;SDS011;26461;45.630;9.418;2023-03-02T09:27:17;30.23;;;18.75;;
40755;SDS011;26461;45.630;9.418;2023-03-02T09:30:26;28.85;;;19.88;;
40755;SDS011;26461;45.630;9.418;2023-03-02T09:33:37;43.88;;;24.05;;
40755;SDS011;26461;45.630;9.418;2023-03-02T09:36:46;39.28;;;19.77;;
40755;SDS011;26461;45.630;9.418;2023-03-02T09:39:58;25.02;;;19.50;;
40755;SDS011;26461;45.630;9.418;2023-03-02T09:46:55;52.88;;;23.58;;
40755;SDS011;26461;45.630;9.418;2023-03-02T09:53:45;36.75;;;19.80;;
40755;SDS011;26461;45.630;9.418;2023-03-02T09:57:00;39.53;;;20.42;;
40755;SDS011;26461;45.630;9.418;2023-03-02T10:00:13;51.97;;;17.65;;
40755;SDS011;26461;45.630;9.418;2023-03-02T10:03:54;25.95;;;17.83;;
40755;SDS011;26461;45.630;9.418;2023-03-02T10:07:48;26.20;;;18.30;;
40755;SDS011;26461;45.630;9.418;2023-03-02T10:10:44;23.00;;;15.43;;
40755;SDS011;26461;45.630;9.418;2023-03-02T10:14:08;21.88;;;11.82;;
40755;SDS011;26461;45.630;9.418;2023-03-02T10:17:43;35.42;;;21.45;;
40755;SDS011;26461;45.630;9.418;2023-03-02T10:21:25;32.05;;;17.63;;
40755;SDS011;26461;45.630;9.418;2023-03-02T10:24:42;26.15;;;14.40;;
40755;SDS011;26461;45.630;9.418;2023-03-02T10:28:00;34.85;;;16.30;;
40755;SDS011;26461;45.630;9.418;2023-03-02T10:31:35;26.20;;;13.50;;
40755;SDS011;26461;45.630;9.418;2023-03-02T10:34:49;29.17;;;17.05;;
40755;SDS011;26461;45.630;9.418;2023-03-02T10:38:08;36.72;;;13.95;;
40755;SDS011;26461;45.630;9.418;2023-03-02T10:41:29;20.40;;;15.05;;
40755;SDS011;26461;45.630;9.418;2023-03-02T10:45:26;33.55;;;17.75;;
40755;SDS011;26461;45.630;9.418;2023-03-02T10:48:31;35.03;;;15.52;;
40755;SDS011;26461;45.630;9.418;2023-03-02T10:51:53;29.73;;;14.38;;
40755;SDS011;26461;45.630;9.418;2023-03-02T10:55:12;34.25;;;16.48;;
40755;SDS011;26461;45.630;9.418;2023-03-02T10:58:31;25.60;;;17.05;;
40755;SDS011;26461;45.630;9.418;2023-03-02T11:01:42;26.92;;;15.27;;
40755;SDS011;26461;45.630;9.418;2023-03-02T11:04:53;24.95;;;16.20;;
40755;SDS011;26461;45.630;9.418;2023-03-02T11:08:20;31.38;;;21.38;;
40755;SDS011;26461;45.630;9.418;2023-03-02T11:11:34;35.60;;;16.23;;
40755;SDS011;26461;45.630;9.418;2023-03-02T11:14:44;36.35;;;17.77;;
40755;SDS011;26461;45.630;9.418;2023-03-02T11:18:02;24.70;;;17.17;;
40755;SDS011;26461;45.630;9.418;2023-03-02T11:21:16;28.80;;;18.58;;
40755;SDS011;26461;45.630;9.418;2023-03-02T11:24:35;33.38;;;15.77;;
40755;SDS011;26461;45.630;9.418;2023-03-02T11:27:51;20.83;;;13.27;;
40755;SDS011;26461;45.630;9.418;2023-03-02T11:31:14;27.85;;;15.50;;
40755;SDS011;26461;45.630;9.418;2023-03-02T11:37:52;38.47;;;14.48;;
40755;SDS011;26461;45.630;9.418;2023-03-02T11:41:12;32.08;;;17.52;;
40755;SDS011;26461;45.630;9.418;2023-03-02T11:44:30;37.25;;;14.27;;
40755;SDS011;26461;45.630;9.418;2023-03-02T11:51:21;19.90;;;13.73;;
40755;SDS011;26461;45.630;9.418;2023-03-02T11:54:38;15.73;;;13.25;;
40755;SDS011;26461;45.630;9.418;2023-03-02T11:57:55;9.52;;;9.02;;
40755;SDS011;26461;45.630;9.418;2023-03-02T12:01:05;20.25;;;11.80;;
40755;SDS011;26461;45.630;9.418;2023-03-02T12:04:27;16.42;;;12.02;;
40755;SDS011;26461;45.630;9.418;2023-03-02T12:07:42;23.05;;;13.23;;
40755;SDS011;26461;45.630;9.418;2023-03-02T12:17:58;16.85;;;11.07;;
40755;SDS011;26461;45.630;9.418;2023-03-02T12:21:09;16.92;;;11.70;;
40755;SDS011;26461;45.630;9.418;2023-03-02T12:24:25;22.88;;;11.73;;
40755;SDS011;26461;45.630;9.418;2023-03-02T12:27:37;29.00;;;14.02;;
40755;SDS011;26461;45.630;9.418;2023-03-02T12:31:23;21.38;;;13.13;;
40755;SDS011;26461;45.630;9.418;2023-03-02T12:45:02;18.20;;;13.63;;
40755;SDS011;26461;45.630;9.418;2023-03-02T12:48:27;22.52;;;11.18;;
40755;SDS011;26461;45.630;9.418;2023-03-02T13:01:33;14.45;;;9.60;;
40755;SDS011;26461;45.630;9.418;2023-03-02T13:04:43;14.43;;;8.18;;
40755;SDS011;26461;45.630;9.418;2023-03-02T13:08:00;13.25;;;9.07;;
40755;SDS011;26461;45.630;9.418;2023-03-02T13:11:13;23.27;;;12.48;;
40755;SDS011;26461;45.630;9.418;2023-03-02T13:14:43;27.15;;;9.80;;
40755;SDS011;26461;45.630;9.418;2023-03-02T13:17:58;18.35;;;6.90;;
40755;SDS011;26461;45.630;9.418;2023-03-02T13:21:09;17.27;;;8.98;;
40755;SDS011;26461;45.630;9.418;2023-03-02T13:24:32;13.48;;;7.38;;
40755;SDS011;26461;45.630;9.418;2023-03-02T13:27:53;16.55;;;11.02;;
40755;SDS011;26461;45.630;9.418;2023-03-02T13:31:16;23.83;;;9.98;;
40755;SDS011;26461;45.630;9.418;2023-03-02T13:34:29;9.82;;;8.57;;
40755;SDS011;26461;45.630;9.418;2023-03-02T13:37:39;15.40;;;8.45;;
40755;SDS011;26461;45.630;9.418;2023-03-02T13:40:53;18.50;;;10.57;;
40755;SDS011;26461;45.630;9.418;2023-03-02T13:44:17;13.18;;;6.20;;
40755;SDS011;26461;45.630;9.418;2023-03-02T13:47:29;11.80;;;7.28;;
40755;SDS011;26461;45.630;9.418;2023-03-02T13:50:39;12.73;;;7.45;;
40755;SDS011;26461;45.630;9.418;2023-03-02T13:54:20;22.17;;;10.75;;
40755;SDS011;26461;45.630;9.418;2023-03-02T13:57:33;18.27;;;9.50;;
40755;SDS011;26461;45.630;9.418;2023-03-02T14:00:42;17.38;;;8.75;;
40755;SDS011;26461;45.630;9.418;2023-03-02T14:03:52;18.73;;;9.40;;
40755;SDS011;26461;45.630;9.418;2023-03-02T14:07:02;14.48;;;13.77;;
40755;SDS011;26461;45.630;9.418;2023-03-02T14:10:08;19.65;;;9.65;;
40755;SDS011;26461;45.630;9.418;2023-03-02T14:13:20;14.52;;;7.55;;
40755;SDS011;26461;45.630;9.418;2023-03-02T14:16:34;23.30;;;10.65;;
40755;SDS011;26461;45.630;9.418;2023-03-02T14:19:44;13.57;;;9.50;;
40755;SDS011;26461;45.630;9.418;2023-03-02T14:23:00;16.55;;;8.60;;
40755;SDS011;26461;45.630;9.418;2023-03-02T14:26:18;26.25;;;11.02;;
40755;SDS011;26461;45.630;9.418;2023-03-02T14:29:30;15.43;;;10.38;;
40755;SDS011;26461;45.630;9.418;2023-03-02T14:32:41;16.98;;;10.40;;
40755;SDS011;26461;45.630;9.418;2023-03-02T14:35:52;25.25;;;10.93;;
40755;SDS011;26461;45.630;9.418;2023-03-02T14:39:04;16.75;;;10.43;;
40755;SDS011;26461;45.630;9.418;2023-03-02T14:42:26;21.70;;;10.50;;
40755;SDS011;26461;45.630;9.418;2023-03-02T14:45:30;21.25;;;10.85;;
40755;SDS011;26461;45.630;9.418;2023-03-02T14:48:40;16.05;;;10.60;;
40755;SDS011;26461;45.630;9.418;2023-03-02T14:51:54;19.25;;;9.82;;
40755;SDS011;26461;45.630;9.418;2023-03-02T14:55:19;31.15;;;13.07;;
40755;SDS011;26461;45.630;9.418;2023-03-02T14:58:40;18.10;;;7.18;;
40755;SDS011;26461;45.630;9.418;2023-03-02T15:01:50;23.17;;;10.35;;
40755;SDS011;26461;45.630;9.418;2023-03-02T15:04:59;13.18;;;12.32;;
40755;SDS011;26461;45.630;9.418;2023-03-02T15:08:13;22.92;;;10.40;;
40755;SDS011;26461;45.630;9.418;2023-03-02T15:11:23;18.20;;;9.73;;
40755;SDS011;26461;45.630;9.418;2023-03-02T15:14:35;15.82;;;12.18;;
40755;SDS011;26461;45.630;9.418;2023-03-02T15:17:44;12.85;;;7.82;;
40755;SDS011;26461;45.630;9.418;2023-03-02T15:20:54;16.58;;;9.57;;
40755;SDS011;26461;45.630;9.418;2023-03-02T15:24:03;29.20;;;16.30;;
40755;SDS011;26461;45.630;9.418;2023-03-02T15:27:13;14.05;;;9.90;;
40755;SDS011;26461;45.630;9.418;2023-03-02T15:30:26;21.55;;;13.52;;
40755;SDS011;26461;45.630;9.418;2023-03-02T15:33:38;19.05;;;10.32;;
40755;SDS011;26461;45.630;9.418;2023-03-02T15:36:48;24.70;;;10.63;;
40755;SDS011;26461;45.630;9.418;2023-03-02T15:39:53;14.10;;;8.35;;
40755;SDS011;26461;45.630;9.418;2023-03-02T15:43:04;29.30;;;12.45;;
40755;SDS011;26461;45.630;9.418;2023-03-02T15:46:13;23.23;;;13.10;;
40755;SDS011;26461;45.630;9.418;2023-03-02T15:49:23;14.63;;;9.05;;
40755;SDS011;26461;45.630;9.418;2023-03-02T15:52:36;25.73;;;10.75;;
40755;SDS011;26461;45.630;9.418;2023-03-02T15:55:47;30.75;;;16.73;;
40755;SDS011;26461;45.630;9.418;2023-03-02T15:58:52;15.48;;;10.20;;
40755;SDS011;26461;45.630;9.418;2023-03-02T16:02:02;33.30;;;13.88;;
40755;SDS011;26461;45.630;9.418;2023-03-02T16:05:12;36.92;;;15.02;;
40755;SDS011;26461;45.630;9.418;2023-03-02T16:08:22;12.02;;;8.23;;
40755;SDS011;26461;45.630;9.418;2023-03-02T16:11:32;17.85;;;12.60;;
40755;SDS011;26461;45.630;9.418;2023-03-02T16:14:42;21.88;;;15.75;;
40755;SDS011;26461;45.630;9.418;2023-03-02T16:17:52;30.38;;;17.23;;
40755;SDS011;26461;45.630;9.418;2023-03-02T16:21:02;29.67;;;12.95;;
40755;SDS011;26461;45.630;9.418;2023-03-02T16:24:12;22.20;;;12.50;;
40755;SDS011;26461;45.630;9.418;2023-03-02T16:27:24;13.95;;;8.93;;
40755;SDS011;26461;45.630;9.418;2023-03-02T16:30:34;18.52;;;11.10;;
40755;SDS011;26461;45.630;9.418;2023-03-02T16:33:44;25.45;;;14.40;;
40755;SDS011;26461;45.630;9.418;2023-03-02T16:36:55;28.55;;;12.23;;
40755;SDS011;26461;45.630;9.418;2023-03-02T16:40:04;17.77;;;9.10;;
40755;SDS011;26461;45.630;9.418;2023-03-02T16:43:15;14.63;;;10.80;;
40755;SDS011;26461;45.630;9.418;2023-03-02T16:46:26;21.83;;;13.20;;
40755;SDS011;26461;45.630;9.418;2023-03-02T16:49:38;24.63;;;14.88;;
40755;SDS011;26461;45.630;9.418;2023-03-02T16:52:48;22.80;;;15.98;;
40755;SDS011;26461;45.630;9.418;2023-03-02T16:55:58;19.38;;;15.15;;
40755;SDS011;26461;45.630;9.418;2023-03-02T16:59:08;16.90;;;12.25;;
40755;SDS011;26461;45.630;9.418;2023-03-02T17:02:19;17.52;;;10.48;;
40755;SDS011;26461;45.630;9.418;2023-03-02T17:05:29;21.05;;;13.63;;
40755;SDS011;26461;45.630;9.418;2023-03-02T17:08:39;17.40;;;10.63;;
40755;SDS011;26461;45.630;9.418;2023-03-02T17:11:49;17.65;;;13.00;;
40755;SDS011;26461;45.630;9.418;2023-03-02T17:14:59;29.95;;;12.48;;
40755;SDS011;26461;45.630;9.418;2023-03-02T17:18:09;18.52;;;15.60;;
40755;SDS011;26461;45.630;9.418;2023-03-02T17:21:19;19.83;;;14.63;;
40755;SDS011;26461;45.630;9.418;2023-03-02T17:24:29;17.65;;;11.98;;
40755;SDS011;26461;45.630;9.418;2023-03-02T17:27:40;15.60;;;10.25;;
40755;SDS011;26461;45.630;9.418;2023-03-02T17:30:49;18.23;;;13.13;;
40755;SDS011;26461;45.630;9.418;2023-03-02T17:33:59;16.80;;;9.90;;
40755;SDS011;26461;45.630;9.418;2023-03-02T17:37:09;15.05;;;13.23;;
40755;SDS011;26461;45.630;9.418;2023-03-02T17:40:19;22.70;;;12.55;;
40755;SDS011;26461;45.630;9.418;2023-03-02T17:43:30;21.83;;;15.25;;
40755;SDS011;26461;45.630;9.418;2023-03-02T17:46:41;25.02;;;13.25;;
40755;SDS011;26461;45.630;9.418;2023-03-02T17:49:52;22.17;;;14.80;;
40755;SDS011;26461;45.630;9.418;2023-03-02T17:53:02;18.27;;;13.07;;
40755;SDS011;26461;45.630;9.418;2023-03-02T17:56:13;32.83;;;18.17;;
40755;SDS011;26461;45.630;9.418;2023-03-02T17:59:23;21.77;;;13.73;;
40755;SDS011;26461;45.630;9.418;2023-03-02T18:02:34;25.65;;;14.45;;
40755;SDS011;26461;45.630;9.418;2023-03-02T18:05:43;18.90;;;17.88;;
40755;SDS011;26461;45.630;9.418;2023-03-02T18:08:54;26.83;;;16.23;;
40755;SDS011;26461;45.630;9.418;2023-03-02T18:12:04;31.70;;;17.70;;
40755;SDS011;26461;45.630;9.418;2023-03-02T18:15:14;21.52;;;18.13;;
40755;SDS011;26461;45.630;9.418;2023-03-02T18:18:20;24.67;;;17.90;;
40755;SDS011;26461;45.630;9.418;2023-03-02T18:21:27;23.70;;;17.98;;
40755;SDS011;26461;45.630;9.418;2023-03-02T18:24:37;24.05;;;17.90;;
40755;SDS011;26461;45.630;9.418;2023-03-02T18:27:47;33.92;;;22.42;;
40755;SDS011;26461;45.630;9.418;2023-03-02T18:30:57;24.25;;;16.80;;
40755;SDS011;26461;45.630;9.418;2023-03-02T18:34:08;20.92;;;19.90;;
40755;SDS011;26461;45.630;9.418;2023-03-02T18:37:18;24.35;;;16.10;;
40755;SDS011;26461;45.630;9.418;2023-03-02T18:40:28;24.45;;;14.85;;
40755;SDS011;26461;45.630;9.418;2023-03-02T18:43:38;20.77;;;15.27;;
40755;SDS011;26461;45.630;9.418;2023-03-02T18:46:50;28.17;;;11.60;;
40755;SDS011;26461;45.630;9.418;2023-03-02T18:50:00;19.30;;;14.95;;
40755;SDS011;26461;45.630;9.418;2023-03-02T18:53:11;20.55;;;19.52;;
40755;SDS011;26461;45.630;9.418;2023-03-02T18:56:21;29.48;;;20.25;;
40755;SDS011;26461;45.630;9.418;2023-03-02T18:59:32;22.92;;;18.88;;
40755;SDS011;26461;45.630;9.418;2023-03-02T19:02:42;28.67;;;22.00;;
40755;SDS011;26461;45.630;9.418;2023-03-02T19:05:52;27.30;;;21.92;;
40755;SDS011;26461;45.630;9.418;2023-03-02T19:08:59;22.13;;;20.20;;
40755;SDS011;26461;45.630;9.418;2023-03-02T19:12:09;28.48;;;23.48;;
40755;SDS011;26461;45.630;9.418;2023-03-02T19:15:19;43.97;;;27.83;;
40755;SDS011;26461;45.630;9.418;2023-03-02T19:18:29;43.80;;;27.30;;
40755;SDS011;26461;45.630;9.418;2023-03-02T19:21:39;71.50;;;40.80;;
40755;SDS011;26461;45.630;9.418;2023-03-02T19:24:49;35.20;;;27.10;;
40755;SDS011;26461;45.630;9.418;2023-03-02T19:27:54;63.78;;;32.42;;
40755;SDS011;26461;45.630;9.418;2023-03-02T19:31:05;34.50;;;24.73;;
40755;SDS011;26461;45.630;9.418;2023-03-02T19:34:16;41.13;;;26.13;;